createdAt,value
2023-01-13T00:00:38.433Z,100014.22
2023-01-13T00:03:06.789Z,100006.66
2023-01-13T00:05:35.399Z,100005.13
2023-01-13T00:08:05.024Z,100003.41
2023-01-13T00:10:34.162Z,100008.06
2023-01-13T00:13:03.122Z,100009.47
2023-01-13T00:15:33.209Z,99994.56
2023-01-13T00:18:01.436Z,99996.94
2023-01-13T00:20:29.769Z,99990.50
2023-01-13T00:22:58.912Z,99983.00
2023-01-13T00:25:27.236Z,99979.16
2023-01-13T00:27:55.589Z,99973.66
2023-01-13T00:30:23.802Z,99974.25
2023-01-13T00:32:53.948Z,99975.16
2023-01-13T00:35:22.188Z,99974.31
2023-01-13T00:37:50.418Z,99960.13
2023-01-13T00:40:18.876Z,99968.41
2023-01-13T00:43:04.741Z,99947.88
2023-01-13T00:45:33.338Z,99948.72
2023-01-13T00:48:03.075Z,99945.53
2023-01-13T00:50:31.395Z,99950.38
2023-01-13T00:53:01.179Z,99945.34
2023-01-13T00:55:32.340Z,99942.50
2023-01-13T00:58:03.559Z,99939.19
2023-01-13T01:00:32.191Z,99934.47
2023-01-13T01:03:00.592Z,99937.94
2023-01-13T01:05:30.341Z,99943.25
2023-01-13T01:07:58.681Z,99931.38
2023-01-13T01:10:27.037Z,99937.94
2023-01-13T01:12:55.252Z,99950.66
2023-01-13T01:15:23.516Z,99946.19
2023-01-13T01:17:51.751Z,99938.16
2023-01-13T01:20:20.191Z,99930.09
2023-01-13T01:22:49.727Z,99939.03
2023-01-13T01:25:17.997Z,99937.97
2023-01-13T01:27:46.231Z,99930.75
2023-01-13T01:30:15.669Z,99942.19
2023-01-13T01:32:43.916Z,99933.19
2023-01-13T01:35:12.217Z,99929.03
2023-01-13T01:37:40.418Z,99931.94
2023-01-13T01:40:11.797Z,99924.94
2023-01-13T01:42:57.587Z,99924.63
2023-01-13T01:45:27.893Z,99928.09
2023-01-13T01:48:04.173Z,99926.22
2023-01-13T01:50:33.275Z,99919.44
2023-01-13T01:53:08.191Z,99917.63
2023-01-13T01:55:39.289Z,99916.16
2023-01-13T01:58:12.674Z,99909.78
2023-01-13T02:00:41.323Z,99905.34
2023-01-13T02:03:10.738Z,99905.78
2023-01-13T02:05:39.617Z,99896.03
2023-01-13T02:08:09.287Z,99901.31
2023-01-13T02:10:39.974Z,99902.81
2023-01-13T02:13:11.351Z,99897.97
2023-01-13T02:15:45.276Z,99898.38
2023-01-13T02:18:27.660Z,99893.81
2023-01-13T02:21:19.046Z,99891.78
2023-01-13T02:24:37.675Z,99892.66
2023-01-13T02:27:35.284Z,99894.34
2023-01-13T02:30:34.241Z,99892.03
2023-01-13T02:33:15.473Z,99884.69
2023-01-13T02:35:51.655Z,99877.41
2023-01-13T02:38:26.184Z,99892.56
2023-01-13T02:40:59.418Z,99882.47
2023-01-13T02:43:51.866Z,99881.97
2023-01-13T02:46:28.517Z,99873.28
2023-01-13T02:49:02.737Z,99868.50
2023-01-13T02:51:33.670Z,99868.59
2023-01-13T02:54:05.748Z,99863.44
2023-01-13T02:56:38.457Z,99858.78
2023-01-13T02:59:07.970Z,99854.63
2023-01-13T03:01:37.833Z,99865.84
2023-01-13T03:04:16.087Z,99871.28
2023-01-13T03:06:54.853Z,99878.47
2023-01-13T03:09:29.889Z,99868.31
2023-01-13T03:12:07.621Z,99867.88
2023-01-13T03:14:43.148Z,99872.22
2023-01-13T03:17:23.054Z,99866.41
2023-01-13T03:20:00.163Z,99866.50
2023-01-13T03:22:35.440Z,99872.22
2023-01-13T03:25:09.000Z,99870.63
2023-01-13T03:27:45.975Z,99874.63
2023-01-13T03:30:20.072Z,99854.31
2023-01-13T03:32:53.132Z,99850.72
2023-01-13T03:35:25.015Z,99859.94
2023-01-13T03:38:03.797Z,99863.63
2023-01-13T03:40:36.851Z,99862.34
2023-01-13T03:43:28.500Z,99864.25
2023-01-13T03:46:03.426Z,99854.09
2023-01-13T03:48:37.102Z,99863.84
2023-01-13T03:51:08.591Z,99851.44
2023-01-13T03:53:41.170Z,99846.91
2023-01-13T03:56:14.662Z,99848.94
2023-01-13T03:58:46.687Z,99851.34
2023-01-13T04:01:17.870Z,99851.03
2023-01-13T04:03:53.254Z,99853.91
2023-01-13T04:06:39.102Z,99855.34
2023-01-13T04:09:12.779Z,99847.31
2023-01-13T04:11:45.177Z,99850.28
2023-01-13T04:14:15.110Z,99854.31
2023-01-13T04:16:44.433Z,99856.84
2023-01-13T04:19:14.072Z,99856.41
2023-01-13T04:21:42.274Z,99856.97
2023-01-13T04:24:10.571Z,99853.25
2023-01-13T04:26:38.708Z,99852.19
2023-01-13T04:29:06.834Z,99847.22
2023-01-13T04:31:35.000Z,99847.88
2023-01-13T04:34:03.155Z,99850.06
2023-01-13T04:36:32.672Z,99847.63
2023-01-13T04:39:00.805Z,99841.78
2023-01-13T04:41:48.940Z,99838.63
2023-01-13T04:44:17.075Z,99840.19
2023-01-13T04:46:45.349Z,99839.91
2023-01-13T04:49:13.540Z,99837.47
2023-01-13T04:51:43.183Z,99838.94
2023-01-13T04:54:11.889Z,99840.94
2023-01-13T04:56:40.059Z,99844.00
2023-01-13T04:59:08.760Z,99841.41
2023-01-13T05:01:37.040Z,99842.84
2023-01-13T05:04:05.447Z,99854.00
2023-01-13T05:06:33.735Z,99857.66
2023-01-13T05:09:03.525Z,99845.22
2023-01-13T05:11:49.335Z,99854.50
2023-01-13T05:14:34.984Z,99851.03
2023-01-13T05:17:03.561Z,99849.25
2023-01-13T05:19:34.060Z,99846.16
2023-01-13T05:22:20.326Z,99856.22
2023-01-13T05:25:07.471Z,99853.47
2023-01-13T05:27:36.798Z,99858.88
2023-01-13T05:30:05.899Z,99856.22
2023-01-13T05:32:34.391Z,99863.44
2023-01-13T05:35:02.695Z,99870.84
2023-01-13T05:37:31.372Z,99860.22
2023-01-13T05:40:18.506Z,99854.84
2023-01-13T05:43:04.189Z,99864.25
2023-01-13T05:45:32.625Z,99858.13
2023-01-13T05:48:00.821Z,99858.97
2023-01-13T05:50:28.996Z,99863.38
2023-01-13T05:52:57.353Z,99868.16
2023-01-13T05:55:27.292Z,99857.66
2023-01-13T05:57:55.423Z,99865.41
2023-01-13T06:00:23.785Z,99864.66
2023-01-13T06:02:52.735Z,99865.53
2023-01-13T06:05:21.048Z,99879.50
2023-01-13T06:07:49.218Z,99875.47
2023-01-13T06:10:17.997Z,99887.75
2023-01-13T06:12:47.494Z,99879.28
2023-01-13T06:15:15.674Z,99881.91
2023-01-13T06:17:43.869Z,99887.97
2023-01-13T06:20:12.928Z,99889.75
2023-01-13T06:22:43.693Z,99887.31
2023-01-13T06:25:18.938Z,99886.13
2023-01-13T06:27:49.385Z,99877.44
2023-01-13T06:30:18.474Z,99882.88
2023-01-13T06:32:53.057Z,99883.88
2023-01-13T06:35:26.494Z,99887.69
2023-01-13T06:37:57.435Z,99891.06
2023-01-13T06:40:26.072Z,99882.88
2023-01-13T06:43:16.308Z,99884.56
2023-01-13T06:45:49.162Z,99884.78
2023-01-13T06:48:18.519Z,99886.28
2023-01-13T06:50:46.680Z,99888.38
2023-01-13T06:53:15.110Z,99897.50
2023-01-13T06:55:43.367Z,99906.41
2023-01-13T06:58:13.133Z,99908.13
2023-01-13T07:00:41.535Z,99902.41
2023-01-13T07:03:11.392Z,99899.00
2023-01-13T07:05:41.188Z,99902.16
2023-01-13T07:08:10.195Z,99896.66
2023-01-13T07:10:39.473Z,99912.44
2023-01-13T07:13:25.220Z,99917.00
2023-01-13T07:15:56.826Z,99915.72
2023-01-13T07:18:27.337Z,99913.00
2023-01-13T07:20:57.403Z,99923.97
2023-01-13T07:23:26.631Z,99903.25
2023-01-13T07:25:56.259Z,99897.81
2023-01-13T07:28:24.980Z,99906.19
2023-01-13T07:30:53.376Z,99906.59
2023-01-13T07:33:23.591Z,99922.28
2023-01-13T07:35:57.775Z,99918.47
2023-01-13T07:38:26.363Z,99925.34
2023-01-13T07:40:54.862Z,99927.34
2023-01-13T07:43:34.771Z,99935.63
2023-01-13T07:46:05.500Z,99931.06
2023-01-13T07:48:35.659Z,99935.81
2023-01-13T07:51:05.265Z,99927.78
2023-01-13T07:53:34.430Z,99926.31
2023-01-13T07:56:04.634Z,99932.59
2023-01-13T07:58:34.178Z,99916.16
2023-01-13T08:01:09.299Z,99908.66
2023-01-13T08:03:39.145Z,99904.72
2023-01-13T08:06:08.031Z,99908.44
2023-01-13T08:08:36.440Z,99899.34
2023-01-13T08:11:06.924Z,99913.00
2023-01-13T08:13:35.684Z,99907.25
2023-01-13T08:16:06.193Z,99897.50
2023-01-13T08:18:35.996Z,99909.78
2023-01-13T08:21:07.874Z,99909.47
2023-01-13T08:23:36.757Z,99922.09
2023-01-13T08:26:07.578Z,99920.19
2023-01-13T08:28:36.063Z,99921.69
2023-01-13T08:31:06.157Z,99942.84
2023-01-13T08:33:34.913Z,99948.78
2023-01-13T08:36:06.018Z,99959.47
2023-01-13T08:38:34.644Z,99958.72
2023-01-13T08:41:08.846Z,99965.94
2023-01-13T08:44:23.749Z,99956.09
2023-01-13T08:46:51.964Z,99953.22
2023-01-13T08:49:20.687Z,99960.63
2023-01-13T08:51:51.187Z,99954.72
2023-01-13T08:54:20.551Z,99959.69
2023-01-13T08:56:49.176Z,99975.69
2023-01-13T08:59:19.405Z,99980.78
2023-01-13T09:01:47.840Z,99967.63
2023-01-13T09:04:18.503Z,99963.81
2023-01-13T09:06:47.437Z,99946.16
2023-01-13T09:09:17.237Z,99936.91
2023-01-13T09:12:05.397Z,99961.28
2023-01-13T09:14:35.401Z,99969.75
2023-01-13T09:17:04.058Z,99976.94
2023-01-13T09:19:32.249Z,99983.22
2023-01-13T09:22:00.830Z,99998.97
2023-01-13T09:24:31.104Z,99985.84
2023-01-13T09:26:59.307Z,99977.16
2023-01-13T09:29:27.520Z,99990.25
2023-01-13T09:31:57.854Z,100000.22
2023-01-13T09:34:43.559Z,99995.66
2023-01-13T09:37:11.711Z,99991.75
2023-01-13T09:39:41.441Z,99966.34
2023-01-13T09:42:37.293Z,99904.28
2023-01-13T09:45:08.190Z,99900.06
2023-01-13T09:47:45.366Z,99907.44
2023-01-13T09:50:26.660Z,99903.53
2023-01-13T09:52:56.396Z,99936.66
2023-01-13T09:55:31.011Z,99936.22
2023-01-13T09:57:59.405Z,99896.09
2023-01-13T10:00:35.935Z,99889.84
2023-01-13T10:03:19.273Z,99902.78
2023-01-13T10:05:56.439Z,99918.28
2023-01-13T10:08:27.659Z,99916.16
2023-01-13T10:10:59.438Z,99925.06
2023-01-13T10:13:29.120Z,99927.38
2023-01-13T10:16:14.508Z,99928.22
2023-01-13T10:18:57.975Z,99936.66
2023-01-13T10:21:49.117Z,99926.63
2023-01-13T10:24:27.644Z,99925.25
2023-01-13T10:27:04.880Z,99935.31
2023-01-13T10:29:34.622Z,99938.75
2023-01-13T10:32:02.886Z,99934.56
2023-01-13T10:34:31.217Z,99939.81
2023-01-13T10:37:01.970Z,99940.81
2023-01-13T10:39:40.758Z,99941.53
2023-01-13T10:42:14.812Z,99941.34
2023-01-13T10:44:50.525Z,99940.50
2023-01-13T10:47:25.096Z,99950.84
2023-01-13T10:50:08.689Z,99954.97
2023-01-13T10:52:42.938Z,99957.84
2023-01-13T10:55:26.849Z,99957.63
2023-01-13T10:57:56.571Z,99961.22
2023-01-13T11:00:30.379Z,99956.16
2023-01-13T11:03:17.149Z,99958.50
2023-01-13T11:05:54.423Z,99952.38
2023-01-13T11:08:25.463Z,99955.09
2023-01-13T11:10:54.989Z,99953.59
2023-01-13T11:13:32.935Z,99955.94
2023-01-13T11:16:06.290Z,99951.84
2023-01-13T11:18:43.607Z,99955.13
2023-01-13T11:21:21.543Z,99945.69
2023-01-13T11:23:56.287Z,99944.31
2023-01-13T11:26:31.055Z,99957.47
2023-01-13T11:29:06.768Z,99975.47
2023-01-13T11:31:40.764Z,99974.84
2023-01-13T11:34:26.453Z,99973.31
2023-01-13T11:36:57.830Z,99975.53
2023-01-13T11:39:31.029Z,99973.59
2023-01-13T11:42:21.866Z,99974.84
2023-01-13T11:44:59.651Z,99967.31
2023-01-13T11:47:28.857Z,99965.47
2023-01-13T11:49:57.239Z,99972.56
2023-01-13T11:52:37.225Z,99966.81
2023-01-13T11:55:31.718Z,99968.88
2023-01-13T11:58:25.421Z,99967.63
2023-01-13T12:01:07.591Z,99963.91
2023-01-13T12:03:41.284Z,99970.72
2023-01-13T12:06:20.865Z,99956.31
2023-01-13T12:09:19.335Z,99973.28
2023-01-13T12:12:16.760Z,99964.25
2023-01-13T12:14:59.778Z,99963.84
2023-01-13T12:17:39.489Z,99962.22
2023-01-13T12:20:25.603Z,99969.00
2023-01-13T12:22:56.767Z,99958.31
2023-01-13T12:25:34.416Z,99968.47
2023-01-13T12:28:10.206Z,99974.44
2023-01-13T12:30:45.347Z,99975.16
2023-01-13T12:33:25.519Z,99983.13
2023-01-13T12:36:01.907Z,99973.38
2023-01-13T12:38:37.209Z,99985.78
2023-01-13T12:41:15.826Z,99985.88
2023-01-13T12:44:06.106Z,99990.63
2023-01-13T12:46:45.421Z,99987.97
2023-01-13T12:49:24.860Z,99987.75
2023-01-13T12:52:23.206Z,99999.88
2023-01-13T12:55:14.388Z,99997.63
2023-01-13T12:57:58.093Z,100010.78
2023-01-13T13:00:33.273Z,100010.66
2023-01-13T13:03:30.038Z,100018.50
2023-01-13T13:06:04.684Z,100014.91
2023-01-13T13:08:46.481Z,100018.06
2023-01-13T13:11:54.240Z,100022.50
2023-01-13T13:15:07.225Z,100009.25
2023-01-13T13:17:43.273Z,100026.75
2023-01-13T13:20:50.665Z,100017.56
2023-01-13T13:24:11.293Z,100020.38
2023-01-13T13:26:45.718Z,100022.50
2023-01-13T13:29:27.069Z,100030.47
2023-01-13T13:32:10.365Z,100037.13
2023-01-13T13:34:49.400Z,100046.75
2023-01-13T13:37:34.117Z,100048.66
2023-01-13T13:40:28.594Z,100036.72
2023-01-13T13:43:16.099Z,100048.03
2023-01-13T13:46:09.032Z,100046.75
2023-01-13T13:48:37.352Z,100052.16
2023-01-13T13:51:26.120Z,100060.09
2023-01-13T13:53:55.830Z,100068.25
2023-01-13T13:56:27.818Z,100058.84
2023-01-13T13:58:56.446Z,100068.41
2023-01-13T14:01:28.360Z,100070.50
2023-01-13T14:04:06.383Z,100067.59
2023-01-13T14:06:35.026Z,100068.44
2023-01-13T14:09:04.500Z,100066.53
2023-01-13T14:11:36.046Z,100060.41
2023-01-13T14:14:06.270Z,100058.69
2023-01-13T14:16:36.413Z,100068.91
2023-01-13T14:19:05.130Z,100065.25
2023-01-13T14:21:33.451Z,100066.31
2023-01-13T14:24:10.707Z,100072.97
2023-01-13T14:26:40.363Z,100068.97
2023-01-13T14:29:14.413Z,100077.13
2023-01-13T14:31:44.551Z,100080.72
2023-01-13T14:34:32.305Z,100074.28
2023-01-13T14:37:02.869Z,100083.53
2023-01-13T14:39:38.801Z,100084.50
2023-01-13T14:42:14.135Z,100072.97
2023-01-13T14:44:46.379Z,100081.66
2023-01-13T14:47:25.389Z,100077.91
2023-01-13T14:50:02.412Z,100078.00
2023-01-13T14:52:32.607Z,100079.44
2023-01-13T14:55:23.566Z,100087.53
2023-01-13T14:57:53.153Z,100083.22
2023-01-13T15:00:26.058Z,100087.06
2023-01-13T15:03:05.937Z,100075.25
2023-01-13T15:05:37.062Z,100082.34
2023-01-13T15:08:26.954Z,100083.97
2023-01-13T15:10:59.829Z,100079.94
2023-01-13T15:13:35.678Z,100088.00
2023-01-13T15:16:06.580Z,100076.75
2023-01-13T15:18:39.863Z,100085.47
2023-01-13T15:21:08.225Z,100078.09
2023-01-13T15:23:36.909Z,100081.84
2023-01-13T15:26:05.447Z,100083.94
2023-01-13T15:28:34.972Z,100088.66
2023-01-13T15:31:03.849Z,100088.84
2023-01-13T15:33:32.236Z,100098.75
2023-01-13T15:36:01.776Z,100090.34
2023-01-13T15:38:29.916Z,100101.31
2023-01-13T15:40:58.079Z,100103.00
2023-01-13T15:43:43.809Z,100099.34
2023-01-13T15:46:34.291Z,100105.09
2023-01-13T15:49:09.784Z,100107.16
2023-01-13T15:51:38.866Z,100104.88
2023-01-13T15:54:07.462Z,100112.25
2023-01-13T15:56:37.923Z,100111.91
2023-01-13T15:59:07.757Z,100109.16
2023-01-13T16:01:37.432Z,100113.22
2023-01-13T16:04:06.231Z,100115.09
2023-01-13T16:06:37.129Z,100119.47
2023-01-13T16:09:06.427Z,100121.16
2023-01-13T16:11:34.536Z,100129.72
2023-01-13T16:14:02.629Z,100129.63
2023-01-13T16:16:30.978Z,100129.16
2023-01-13T16:19:00.422Z,100131.88
2023-01-13T16:21:28.497Z,100126.31
2023-01-13T16:23:56.641Z,100129.31
2023-01-13T16:26:26.799Z,100136.97
2023-01-13T16:28:57.221Z,100129.44
2023-01-13T16:31:29.212Z,100132.59
2023-01-13T16:33:57.714Z,100129.59
2023-01-13T16:36:28.011Z,100133.50
2023-01-13T16:38:58.276Z,100137.28
2023-01-13T16:41:26.440Z,100139.09
2023-01-13T16:43:54.927Z,100142.97
2023-01-13T16:46:25.675Z,100143.91
2023-01-13T16:48:56.700Z,100144.94
2023-01-13T16:51:26.651Z,100148.91
2023-01-13T16:53:54.883Z,100156.94
2023-01-13T16:56:27.880Z,100168.09
2023-01-13T16:58:58.047Z,100173.09
2023-01-13T17:01:28.289Z,100169.56
2023-01-13T17:03:57.568Z,100174.31
2023-01-13T17:06:33.111Z,100190.53
2023-01-13T17:09:02.491Z,100198.22
2023-01-13T17:11:30.972Z,100195.91
2023-01-13T17:13:59.212Z,100193.31
2023-01-13T17:16:28.284Z,100188.75
2023-01-13T17:18:56.604Z,100167.44
2023-01-13T17:21:24.807Z,100181.47
2023-01-13T17:23:54.406Z,100171.22
2023-01-13T17:26:32.061Z,100179.16
2023-01-13T17:29:01.350Z,100182.25
2023-01-13T17:31:30.397Z,100181.13
2023-01-13T17:33:58.994Z,100181.13
2023-01-13T17:36:27.266Z,100184.94
2023-01-13T17:38:57.821Z,100196.19
2023-01-13T17:41:27.050Z,100198.06
2023-01-13T17:43:55.259Z,100193.63
2023-01-13T17:46:23.530Z,100208.97
2023-01-13T17:48:53.641Z,100204.38
2023-01-13T17:51:25.030Z,100212.38
2023-01-13T17:53:53.892Z,100215.53
2023-01-13T17:56:25.186Z,100212.38
2023-01-13T17:58:53.462Z,100223.28
2023-01-13T18:01:23.463Z,100216.13
2023-01-13T18:03:52.249Z,100215.28
2023-01-13T18:06:22.641Z,100216.75
2023-01-13T18:08:51.617Z,100216.13
2023-01-13T18:11:22.112Z,100218.75
2023-01-13T18:13:55.043Z,100230.44
2023-01-13T18:16:24.412Z,100228.22
2023-01-13T18:18:53.344Z,100223.72
2023-01-13T18:21:41.868Z,100237.16
2023-01-13T18:24:31.069Z,100237.06
2023-01-13T18:27:16.820Z,100240.13
2023-01-13T18:29:46.737Z,100250.09
2023-01-13T18:32:15.617Z,100247.97
2023-01-13T18:34:43.929Z,100253.69
2023-01-13T18:37:13.647Z,100235.38
2023-01-13T18:39:42.340Z,100241.59
2023-01-13T18:42:30.076Z,100234.69
2023-01-13T18:44:59.802Z,100242.69
2023-01-13T18:47:30.722Z,100249.00
2023-01-13T18:49:58.955Z,100259.31
2023-01-13T18:52:27.371Z,100260.50
2023-01-13T18:54:55.581Z,100257.88
2023-01-13T18:57:23.856Z,100266.19
2023-01-13T18:59:52.028Z,100254.34
2023-01-13T19:02:23.445Z,100248.66
2023-01-13T19:04:51.979Z,100257.34
2023-01-13T19:07:24.370Z,100255.88
2023-01-13T19:09:55.693Z,100258.59
2023-01-13T19:12:27.463Z,100264.75
2023-01-13T19:14:56.567Z,100266.63
2023-01-13T19:17:28.422Z,100265.16
2023-01-13T19:19:58.413Z,100270.09
2023-01-13T19:22:30.799Z,100270.88
2023-01-13T19:24:59.162Z,100276.56
2023-01-13T19:27:28.344Z,100271.44
2023-01-13T19:30:00.177Z,100268.66
2023-01-13T19:32:30.908Z,100277.94
2023-01-13T19:35:00.102Z,100286.19
2023-01-13T19:37:30.289Z,100282.69
2023-01-13T19:39:59.380Z,100293.19
2023-01-13T19:42:45.677Z,100293.34
2023-01-13T19:45:31.783Z,100299.91
2023-01-13T19:48:04.778Z,100304.34
2023-01-13T19:50:37.485Z,100297.19
2023-01-13T19:53:05.999Z,100305.25
2023-01-13T19:55:34.249Z,100309.44
2023-01-13T19:58:03.579Z,100300.91
2023-01-13T20:00:31.959Z,100314.91
2023-01-13T20:03:03.541Z,100323.91
2023-01-13T20:05:31.816Z,100317.53
2023-01-13T20:07:59.988Z,100329.97
2023-01-13T20:10:30.599Z,100320.69
2023-01-13T20:12:58.969Z,100336.19
2023-01-13T20:15:27.228Z,100341.31
2023-01-13T20:17:55.863Z,100328.63
2023-01-13T20:20:27.308Z,100336.56
2023-01-13T20:22:55.441Z,100342.34
2023-01-13T20:25:23.648Z,100336.28
2023-01-13T20:27:51.849Z,100341.13
2023-01-13T20:30:20.071Z,100348.13
2023-01-13T20:32:48.238Z,100350.16
2023-01-13T20:35:17.141Z,100354.28
2023-01-13T20:37:46.665Z,100355.97
2023-01-13T20:40:17.076Z,100355.63
2023-01-13T20:42:47.352Z,100353.56
2023-01-13T20:45:20.723Z,100346.50
2023-01-13T20:47:49.299Z,100353.25
2023-01-13T20:50:17.777Z,100350.34
2023-01-13T20:52:47.818Z,100345.91
2023-01-13T20:55:16.585Z,100346.44
2023-01-13T20:57:48.476Z,100355.44
2023-01-13T21:00:17.777Z,100361.94
2023-01-13T21:02:46.099Z,100359.88
2023-01-13T21:05:14.487Z,100360.41
2023-01-13T21:07:42.845Z,100356.47
2023-01-13T21:10:12.731Z,100369.28
2023-01-13T21:12:58.793Z,100369.78
2023-01-13T21:15:27.536Z,100376.31
2023-01-13T21:18:13.431Z,100379.31
2023-01-13T21:20:41.591Z,100375.91
2023-01-13T21:23:11.190Z,100368.41
2023-01-13T21:25:41.129Z,100375.47
2023-01-13T21:28:11.497Z,100386.47
2023-01-13T21:30:40.198Z,100380.84
2023-01-13T21:33:08.557Z,100383.25
2023-01-13T21:35:38.981Z,100388.88
2023-01-13T21:38:07.278Z,100381.78
2023-01-13T21:40:35.623Z,100395.00
2023-01-13T21:43:22.691Z,100381.88
2023-01-13T21:46:08.443Z,100395.31
2023-01-13T21:48:36.651Z,100406.78
2023-01-13T21:51:05.103Z,100391.25
2023-01-13T21:53:33.311Z,100410.50
2023-01-13T21:56:01.451Z,100413.94
2023-01-13T21:58:31.044Z,100413.56
2023-01-13T22:01:01.984Z,100414.25
2023-01-13T22:03:30.222Z,100408.91
2023-01-13T22:05:58.482Z,100411.59
2023-01-13T22:08:26.650Z,100430.16
2023-01-13T22:10:58.481Z,100423.44
2023-01-13T22:13:44.988Z,100419.25
2023-01-13T22:16:14.694Z,100426.22
2023-01-13T22:18:43.214Z,100431.00
2023-01-13T22:21:11.733Z,100428.63
2023-01-13T22:23:40.128Z,100427.50
2023-01-13T22:26:09.244Z,100426.31
2023-01-13T22:28:42.748Z,100441.44
2023-01-13T22:31:12.408Z,100448.13
2023-01-13T22:33:42.643Z,100452.03
2023-01-13T22:36:11.262Z,100450.50
2023-01-13T22:38:39.786Z,100439.94
2023-01-13T22:41:09.490Z,100450.50
2023-01-13T22:43:38.824Z,100445.22
2023-01-13T22:46:08.778Z,100456.75
2023-01-13T22:48:37.509Z,100456.50
2023-01-13T22:51:08.727Z,100453.03
2023-01-13T22:53:38.114Z,100459.88
2023-01-13T22:56:06.878Z,100459.94
2023-01-13T22:58:35.085Z,100460.66
2023-01-13T23:01:10.887Z,100471.97
2023-01-13T23:03:39.191Z,100481.47
2023-01-13T23:06:09.188Z,100473.44
2023-01-13T23:08:37.810Z,100477.63
2023-01-13T23:11:08.110Z,100485.41
2023-01-13T23:13:37.901Z,100480.22
2023-01-13T23:16:08.733Z,100482.69
2023-01-13T23:18:36.904Z,100492.38
2023-01-13T23:21:06.169Z,100492.63
2023-01-13T23:23:35.977Z,100486.34
2023-01-13T23:26:05.260Z,100490.75
2023-01-13T23:28:34.533Z,100485.97
2023-01-13T23:31:07.587Z,100494.78
2023-01-13T23:33:37.578Z,100486.19
2023-01-13T23:36:08.003Z,100496.75
2023-01-13T23:38:37.492Z,100506.91
2023-01-13T23:41:06.712Z,100499.75
2023-01-13T23:43:35.394Z,100498.84
2023-01-13T23:46:04.501Z,100495.50
2023-01-13T23:48:33.790Z,100505.50
2023-01-13T23:51:03.497Z,100501.19
2023-01-13T23:53:33.481Z,100503.50
2023-01-13T23:56:04.378Z,100502.41
2023-01-13T23:58:33.061Z,100498.78
